createdAt,value
2023-08-14T00:00:56.640Z,1.80
2023-08-14T00:03:23.939Z,2.13
2023-08-14T00:05:51.297Z,1.58
2023-08-14T00:08:18.028Z,1.85
2023-08-14T00:10:44.853Z,1.80
2023-08-14T00:13:12.333Z,1.70
2023-08-14T00:15:39.739Z,1.70
2023-08-14T00:18:06.869Z,1.83
2023-08-14T00:20:34.158Z,1.73
2023-08-14T00:23:00.868Z,1.80
2023-08-14T00:25:27.566Z,1.70
2023-08-14T00:27:55.094Z,1.70
2023-08-14T00:30:21.937Z,2.00
2023-08-14T00:32:48.993Z,2.08
2023-08-14T00:35:16.522Z,1.88
2023-08-14T00:37:47.827Z,2.35
2023-08-14T00:40:17.417Z,2.45
2023-08-14T01:19:32.886Z,2.22
2023-08-14T01:22:19.043Z,2.20
2023-08-14T01:25:01.207Z,2.20
2023-08-14T01:27:28.749Z,2.72
2023-08-14T01:29:59.776Z,2.25
2023-08-14T01:32:27.212Z,2.83
2023-08-14T01:34:55.878Z,2.60
2023-08-14T01:37:47.174Z,2.80
2023-08-14T01:40:34.724Z,2.38
2023-08-14T01:43:07.730Z,2.38
2023-08-14T01:45:36.358Z,2.80
2023-08-14T01:48:05.838Z,2.55
2023-08-14T01:50:34.008Z,2.88
2023-08-14T01:53:01.116Z,2.20
2023-08-14T01:55:27.860Z,2.83
2023-08-14T01:57:54.843Z,3.25
2023-08-14T02:00:21.817Z,3.35
2023-08-14T02:02:49.041Z,2.55
2023-08-14T02:05:16.056Z,2.70
2023-08-14T02:07:43.653Z,2.78
2023-08-14T02:10:10.665Z,2.67
2023-08-14T02:12:37.448Z,2.60
2023-08-14T02:15:04.642Z,3.33
2023-08-14T02:17:31.427Z,3.72
2023-08-14T02:19:58.238Z,3.50
2023-08-14T02:22:24.990Z,3.17
2023-08-14T02:24:52.012Z,3.00
2023-08-14T02:27:18.844Z,2.85
2023-08-14T02:29:46.630Z,2.70
2023-08-14T02:32:13.879Z,3.05
2023-08-14T02:34:51.112Z,2.70
2023-08-14T02:37:19.209Z,3.10
2023-08-14T02:39:46.695Z,3.22
2023-08-14T02:42:16.842Z,3.38
2023-08-14T02:44:44.139Z,3.25
2023-08-14T02:47:11.292Z,3.13
2023-08-14T02:49:37.996Z,3.70
2023-08-14T02:52:05.401Z,3.58
2023-08-14T02:54:32.231Z,3.13
2023-08-14T02:56:58.973Z,3.47
2023-08-14T02:59:25.737Z,3.90
2023-08-14T03:01:52.627Z,3.97
2023-08-14T03:04:19.430Z,4.00
2023-08-14T03:06:46.222Z,3.97
2023-08-14T03:09:13.133Z,4.63
2023-08-14T03:11:40.051Z,3.88
2023-08-14T03:14:06.855Z,4.13
2023-08-14T03:16:33.633Z,3.72
2023-08-14T03:19:00.412Z,3.92
2023-08-14T03:21:27.216Z,4.70
2023-08-14T03:23:53.933Z,4.70
2023-08-14T03:26:20.700Z,4.20
2023-08-14T03:28:47.520Z,4.45
2023-08-14T03:31:14.816Z,4.85
2023-08-14T03:33:41.698Z,5.88
2023-08-14T03:36:08.515Z,4.50
2023-08-14T03:38:35.260Z,5.35
2023-08-14T03:41:01.987Z,5.22
2023-08-14T03:43:29.187Z,5.00
2023-08-14T03:45:56.051Z,4.88
2023-08-14T03:48:23.122Z,5.15
2023-08-14T03:50:51.160Z,5.03
2023-08-14T03:53:18.042Z,5.00
2023-08-14T03:55:46.642Z,5.00
2023-08-14T03:58:13.551Z,4.82
2023-08-14T04:00:40.671Z,4.35
2023-08-14T04:03:07.496Z,5.10
2023-08-14T04:05:40.142Z,5.30
2023-08-14T04:08:08.236Z,4.38
2023-08-14T04:10:35.848Z,4.50
2023-08-14T04:13:02.707Z,5.18
2023-08-14T04:15:29.762Z,4.90
2023-08-14T04:17:56.715Z,5.15
2023-08-14T04:20:23.684Z,4.38
2023-08-14T04:22:50.500Z,4.88
2023-08-14T04:25:19.963Z,5.22
2023-08-14T04:27:47.164Z,5.65
2023-08-14T04:30:14.287Z,5.47
2023-08-14T04:32:42.110Z,5.22
2023-08-14T04:35:09.679Z,5.20
2023-08-14T04:37:36.436Z,5.70
2023-08-14T04:40:03.470Z,5.15
2023-08-14T04:42:30.270Z,5.40
2023-08-14T04:44:56.963Z,4.40
2023-08-14T04:47:23.764Z,4.28
2023-08-14T04:49:50.478Z,4.72
2023-08-14T04:52:17.406Z,6.53
2023-08-14T04:54:44.356Z,5.10
2023-08-14T04:57:11.052Z,4.80
2023-08-14T04:59:37.741Z,5.72
2023-08-14T05:02:05.226Z,5.05
2023-08-14T05:04:31.998Z,5.15
2023-08-14T05:06:58.782Z,4.82
2023-08-14T05:09:27.721Z,4.80
2023-08-14T05:11:55.244Z,5.78
2023-08-14T05:14:22.178Z,5.65
2023-08-14T05:16:49.045Z,5.35
2023-08-14T05:19:16.060Z,5.63
2023-08-14T05:21:43.059Z,5.10
2023-08-14T05:24:10.077Z,5.00
2023-08-14T05:26:36.792Z,4.75
2023-08-14T05:29:03.719Z,5.35
2023-08-14T05:31:30.455Z,5.68
2023-08-14T05:33:57.327Z,5.30
2023-08-14T05:36:24.083Z,5.53
2023-08-14T05:38:50.790Z,5.10
2023-08-14T05:41:18.092Z,5.60
2023-08-14T05:43:44.869Z,5.72
2023-08-14T05:46:11.647Z,5.65
2023-08-14T05:48:38.460Z,5.32
2023-08-14T05:51:05.155Z,5.38
2023-08-14T05:53:31.936Z,6.18
2023-08-14T05:55:58.800Z,5.65
2023-08-14T05:58:25.576Z,7.03
2023-08-14T06:00:52.377Z,5.88
2023-08-14T06:03:29.125Z,5.60
2023-08-14T06:06:00.414Z,7.13
2023-08-14T06:08:27.131Z,6.78
2023-08-14T06:10:53.894Z,7.20
2023-08-14T06:13:20.634Z,7.15
2023-08-14T06:15:47.842Z,7.53
2023-08-14T06:18:14.610Z,8.27
2023-08-14T06:20:41.408Z,8.23
2023-08-14T06:23:08.138Z,7.80
2023-08-14T06:25:34.950Z,8.02
2023-08-14T06:28:01.668Z,8.02
2023-08-14T06:30:28.392Z,7.43
2023-08-14T06:32:55.104Z,7.93
2023-08-14T06:35:22.136Z,8.15
2023-08-14T06:37:48.903Z,8.20
2023-08-14T06:40:15.803Z,8.02
2023-08-14T06:42:42.600Z,7.63
2023-08-14T06:45:10.556Z,7.70
2023-08-14T06:47:45.715Z,7.07
2023-08-14T06:50:13.820Z,6.65
2023-08-14T06:52:40.837Z,7.03
2023-08-14T06:55:08.209Z,5.80
2023-08-14T06:57:35.164Z,7.03
2023-08-14T07:00:07.759Z,6.00
2023-08-14T07:02:34.897Z,6.07
2023-08-14T07:05:01.804Z,5.20
2023-08-14T07:07:28.697Z,2.63
2023-08-14T07:09:55.971Z,4.28
2023-08-14T07:12:22.995Z,4.13
2023-08-14T07:14:50.052Z,4.60
2023-08-14T07:17:16.882Z,4.13
2023-08-14T07:19:43.663Z,3.83
2023-08-14T07:22:11.004Z,3.53
2023-08-14T07:24:37.797Z,3.05
2023-08-14T07:27:04.496Z,3.28
2023-08-14T07:29:36.079Z,3.47
2023-08-14T07:32:03.263Z,3.30
2023-08-14T07:34:30.140Z,2.42
2023-08-14T07:36:56.892Z,2.70
2023-08-14T07:39:24.408Z,2.50
2023-08-14T07:41:51.205Z,2.28
2023-08-14T07:44:17.985Z,1.95
2023-08-14T07:46:44.699Z,2.53
2023-08-14T07:49:11.484Z,1.70
2023-08-14T07:51:38.236Z,1.63
2023-08-14T07:54:05.276Z,1.70
2023-08-14T07:56:32.076Z,2.00
2023-08-14T07:58:58.936Z,1.85
2023-08-14T08:01:25.726Z,1.73
2023-08-14T08:03:52.493Z,2.65
2023-08-14T08:06:19.551Z,1.92
2023-08-14T08:08:47.658Z,2.08
2023-08-14T08:11:15.651Z,1.67
2023-08-14T08:13:43.433Z,1.83
2023-08-14T08:16:10.370Z,1.25
2023-08-14T08:18:37.497Z,1.70
2023-08-14T08:21:04.366Z,1.20
2023-08-14T08:23:31.065Z,1.25
2023-08-14T08:25:57.830Z,1.73
2023-08-14T08:28:24.557Z,1.35
2023-08-14T08:30:51.304Z,1.77
2023-08-14T08:33:26.904Z,1.50
2023-08-14T08:35:54.564Z,1.55
2023-08-14T08:38:21.386Z,1.80
2023-08-14T08:40:50.493Z,2.00
2023-08-14T08:43:17.843Z,2.58
2023-08-14T08:45:50.287Z,1.77
2023-08-14T08:48:22.359Z,2.30
2023-08-14T08:50:52.370Z,2.08
2023-08-14T08:53:22.007Z,2.20
2023-08-14T08:55:50.356Z,2.65
2023-08-14T08:58:18.097Z,2.20
2023-08-14T09:00:45.160Z,2.78
2023-08-14T09:03:13.808Z,2.30
2023-08-14T09:05:42.385Z,2.80
2023-08-14T09:08:11.951Z,2.90
2023-08-14T09:10:38.936Z,2.75
2023-08-14T09:13:09.420Z,2.50
2023-08-14T09:15:41.871Z,2.90
2023-08-14T09:18:10.286Z,2.85
2023-08-14T09:20:37.443Z,2.95
2023-08-14T09:23:04.855Z,3.13
2023-08-14T09:25:32.242Z,3.22
2023-08-14T09:27:59.479Z,2.75
2023-08-14T09:30:29.916Z,2.90
2023-08-14T09:32:56.964Z,2.23
2023-08-14T09:35:23.943Z,2.08
2023-08-14T09:37:51.174Z,2.85
2023-08-14T09:40:18.522Z,2.80
2023-08-14T09:42:50.216Z,2.60
2023-08-14T09:45:19.893Z,2.50
2023-08-14T09:47:51.188Z,2.70
2023-08-14T09:50:21.027Z,2.58
2023-08-14T09:52:47.808Z,3.28
2023-08-14T09:55:15.781Z,3.33
2023-08-14T09:57:43.129Z,2.55
2023-08-14T10:00:12.272Z,2.58
2023-08-14T10:02:40.234Z,2.65
2023-08-14T10:05:10.694Z,2.67
2023-08-14T10:07:39.734Z,2.77
2023-08-14T10:10:09.071Z,3.50
2023-08-14T10:12:44.752Z,2.80
2023-08-14T10:15:14.251Z,2.80
2023-08-14T10:17:52.681Z,3.00
2023-08-14T10:20:23.339Z,3.00
2023-08-14T10:22:53.708Z,3.05
2023-08-14T10:25:24.135Z,3.15
2023-08-14T10:27:54.739Z,2.63
2023-08-14T10:30:26.272Z,2.97
2023-08-14T10:32:53.974Z,2.92
2023-08-14T10:35:25.004Z,2.88
2023-08-14T10:38:08.229Z,3.40
2023-08-14T10:40:37.512Z,2.50
2023-08-14T10:43:06.813Z,3.10
2023-08-14T10:45:34.297Z,2.58
2023-08-14T10:48:09.973Z,2.53
2023-08-14T10:50:36.951Z,2.40
2023-08-14T10:53:06.583Z,2.63
2023-08-14T10:55:37.399Z,2.40
2023-08-14T10:58:29.032Z,2.35
2023-08-14T11:00:56.681Z,1.80
2023-08-14T11:03:24.071Z,1.92
2023-08-14T11:05:51.152Z,2.22
2023-08-14T11:08:19.179Z,2.42
2023-08-14T11:10:46.031Z,2.58
2023-08-14T11:13:13.778Z,2.05
2023-08-14T11:15:41.547Z,2.10
2023-08-14T11:18:11.974Z,1.73
2023-08-14T11:20:42.884Z,2.07
2023-08-14T11:23:10.868Z,1.77
2023-08-14T11:25:38.920Z,1.70
2023-08-14T11:28:06.022Z,1.80
2023-08-14T11:30:35.017Z,2.40
2023-08-14T11:33:08.247Z,1.70
2023-08-14T11:35:35.026Z,2.15
2023-08-14T11:38:02.212Z,1.65
2023-08-14T11:40:29.226Z,1.75
2023-08-14T11:42:58.647Z,2.15
2023-08-14T11:45:26.307Z,1.70
2023-08-14T11:47:53.483Z,1.48
2023-08-14T11:50:20.518Z,1.63
2023-08-14T11:52:47.530Z,1.70
2023-08-14T11:55:14.849Z,1.25
2023-08-14T11:57:45.266Z,1.65
2023-08-14T12:00:16.429Z,1.40
2023-08-14T12:02:47.452Z,1.63
2023-08-14T12:05:14.255Z,1.50
2023-08-14T12:07:44.128Z,1.67
2023-08-14T12:10:15.452Z,1.42
2023-08-14T12:12:54.374Z,1.65
2023-08-14T12:15:24.423Z,1.52
2023-08-14T12:17:52.596Z,1.85
2023-08-14T12:20:22.247Z,1.90
2023-08-14T12:22:55.331Z,1.75
2023-08-14T12:25:29.690Z,1.45
2023-08-14T12:27:56.953Z,1.55
2023-08-14T12:30:23.757Z,1.67
2023-08-14T12:32:50.670Z,2.03
2023-08-14T12:35:17.400Z,1.55
2023-08-14T12:37:44.136Z,1.63
2023-08-14T12:40:11.833Z,2.08
2023-08-14T12:42:39.700Z,1.58
2023-08-14T12:45:07.159Z,2.13
2023-08-14T12:47:34.060Z,1.63
2023-08-14T12:50:00.901Z,1.52
2023-08-14T12:52:29.505Z,1.40
2023-08-14T12:55:05.421Z,1.67
2023-08-14T12:57:33.573Z,1.90
2023-08-14T13:00:00.653Z,1.77
2023-08-14T13:05:00.414Z,1.58
2023-08-14T13:07:28.904Z,1.60
2023-08-14T13:09:56.151Z,1.45
2023-08-14T13:12:23.148Z,1.50
2023-08-14T13:14:49.923Z,1.80
2023-08-14T13:17:17.208Z,1.40
2023-08-14T13:19:44.161Z,1.65
2023-08-14T13:22:10.901Z,1.65
2023-08-14T13:24:37.617Z,1.50
2023-08-14T13:27:09.381Z,1.45
2023-08-14T13:29:38.270Z,1.52
2023-08-14T13:32:05.822Z,1.95
2023-08-14T13:34:32.743Z,1.40
2023-08-14T13:36:59.525Z,1.45
2023-08-14T13:39:26.275Z,1.70
2023-08-14T13:41:54.112Z,1.73
2023-08-14T13:44:20.845Z,1.63
2023-08-14T13:46:47.630Z,2.08
2023-08-14T13:49:14.399Z,1.48
2023-08-14T13:51:45.526Z,1.48
2023-08-14T13:54:12.908Z,1.55
2023-08-14T13:56:40.011Z,1.75
2023-08-14T13:59:06.789Z,1.77
2023-08-14T14:01:33.758Z,1.42
2023-08-14T14:04:00.542Z,1.67
2023-08-14T14:06:27.211Z,1.27
2023-08-14T14:08:53.913Z,1.58
2023-08-14T14:11:20.623Z,1.60
2023-08-14T14:13:47.381Z,1.73
2023-08-14T14:16:14.115Z,1.63
2023-08-14T14:18:40.735Z,1.40
2023-08-14T14:21:07.401Z,1.48
2023-08-14T14:23:34.168Z,1.42
2023-08-14T14:26:00.887Z,2.00
2023-08-14T14:28:30.200Z,2.38
2023-08-14T14:30:57.434Z,1.48
2023-08-14T14:33:24.300Z,1.70
2023-08-14T14:35:51.035Z,1.55
2023-08-14T14:38:17.842Z,1.90
2023-08-14T14:40:44.554Z,1.63
2023-08-14T14:43:11.257Z,1.50
2023-08-14T14:45:38.024Z,1.83
2023-08-14T14:48:05.187Z,1.60
2023-08-14T14:50:32.040Z,1.83
2023-08-14T14:52:59.017Z,1.52
2023-08-14T14:55:28.345Z,1.60
2023-08-14T14:57:55.280Z,1.67
2023-08-14T15:00:22.434Z,1.42
2023-08-14T15:02:49.327Z,1.63
2023-08-14T15:05:27.879Z,2.30
2023-08-14T15:07:56.882Z,1.73
2023-08-14T15:10:23.928Z,1.58
2023-08-14T15:12:50.715Z,1.30
2023-08-14T15:15:17.511Z,1.55
2023-08-14T15:17:45.322Z,1.48
2023-08-14T15:20:13.758Z,1.92
2023-08-14T15:22:41.158Z,1.58
2023-08-14T15:25:09.129Z,1.80
2023-08-14T15:27:36.244Z,1.45
2023-08-14T15:30:03.737Z,1.60
2023-08-14T15:32:30.790Z,1.30
2023-08-14T15:34:57.526Z,1.52
2023-08-14T15:37:24.287Z,1.92
2023-08-14T15:39:51.943Z,1.58
2023-08-14T15:42:18.754Z,1.38
2023-08-14T15:44:45.719Z,1.88
2023-08-14T15:47:12.622Z,1.73
2023-08-14T15:49:39.832Z,1.30
2023-08-14T15:52:06.576Z,1.75
2023-08-14T15:54:47.205Z,1.50
2023-08-14T15:57:20.115Z,5.05
2023-08-14T15:59:47.429Z,2.55
2023-08-14T16:02:14.665Z,2.05
2023-08-14T16:04:42.027Z,1.67
2023-08-14T16:07:08.792Z,1.30
2023-08-14T16:09:35.731Z,1.80
2023-08-14T16:12:02.933Z,2.25
2023-08-14T16:14:29.776Z,1.73
2023-08-14T16:16:57.976Z,1.55
2023-08-14T16:19:24.870Z,1.70
2023-08-14T16:21:51.693Z,1.45
2023-08-14T16:24:18.504Z,1.60
2023-08-14T16:26:45.372Z,1.83
2023-08-14T16:29:12.638Z,1.60
2023-08-14T16:31:39.512Z,1.85
2023-08-14T16:34:06.308Z,1.60
2023-08-14T16:36:33.048Z,1.70
2023-08-14T16:38:59.921Z,1.77
2023-08-14T16:41:26.758Z,1.50
2023-08-14T16:43:53.565Z,1.80
2023-08-14T16:46:20.363Z,1.77
2023-08-14T16:48:47.774Z,1.75
2023-08-14T16:51:14.577Z,1.63
2023-08-14T16:53:41.380Z,1.63
2023-08-14T16:56:08.092Z,1.80
2023-08-14T16:58:34.955Z,1.70
2023-08-14T17:01:01.734Z,1.80
2023-08-14T17:03:28.598Z,2.08
2023-08-14T17:06:00.197Z,1.52
2023-08-14T17:08:27.864Z,1.83
2023-08-14T17:10:54.573Z,1.80
2023-08-14T17:13:21.292Z,1.52
2023-08-14T17:15:47.973Z,1.80
2023-08-14T17:18:14.669Z,1.45
2023-08-14T17:20:49.497Z,1.70
2023-08-14T17:23:19.851Z,2.00
2023-08-14T17:25:56.846Z,1.48
2023-08-14T17:28:25.485Z,1.80
2023-08-14T17:30:56.432Z,1.50
2023-08-14T17:33:23.962Z,1.60
2023-08-14T17:35:51.384Z,1.95
2023-08-14T17:38:18.250Z,2.10
2023-08-14T17:40:45.034Z,2.00
2023-08-14T17:43:11.774Z,1.70
2023-08-14T17:45:43.381Z,2.25
2023-08-14T17:48:11.223Z,1.48
2023-08-14T17:50:38.441Z,1.58
2023-08-14T17:53:05.314Z,1.92
2023-08-14T17:55:32.157Z,1.83
2023-08-14T17:57:58.857Z,2.03
2023-08-14T18:00:26.024Z,2.00
2023-08-14T18:02:52.899Z,1.73
2023-08-14T18:05:19.709Z,1.80
2023-08-14T18:07:46.455Z,2.20
2023-08-14T18:10:13.245Z,1.70
2023-08-14T18:12:40.015Z,2.25
2023-08-14T18:15:07.323Z,1.52
2023-08-14T18:17:34.190Z,1.85
2023-08-14T18:20:01.073Z,2.35
2023-08-14T18:22:27.782Z,1.77
2023-08-14T18:24:54.546Z,1.88
2023-08-14T18:27:21.626Z,2.17
2023-08-14T18:29:48.635Z,1.98
2023-08-14T18:32:15.433Z,1.60
2023-08-14T18:34:43.806Z,1.98
2023-08-14T18:37:11.062Z,1.77
2023-08-14T18:39:37.824Z,2.22
2023-08-14T18:42:06.526Z,2.08
2023-08-14T18:44:33.450Z,1.77
2023-08-14T18:47:00.245Z,2.40
2023-08-14T18:49:27.053Z,2.00
2023-08-14T18:51:54.018Z,2.08
2023-08-14T18:54:21.408Z,2.05
2023-08-14T18:56:48.462Z,1.88
2023-08-14T18:59:18.652Z,2.10
2023-08-14T19:01:45.482Z,2.03
2023-08-14T19:04:12.555Z,2.33
2023-08-14T19:06:39.437Z,1.80
2023-08-14T19:09:06.921Z,2.08
2023-08-14T19:11:33.645Z,2.15
2023-08-14T19:14:00.356Z,2.25
2023-08-14T19:16:27.070Z,2.05
2023-08-14T19:18:55.110Z,2.15
2023-08-14T19:21:23.130Z,2.25
2023-08-14T19:23:50.489Z,2.17
2023-08-14T19:26:27.175Z,1.95
2023-08-14T19:28:54.626Z,1.95
2023-08-14T19:31:23.054Z,2.33
2023-08-14T19:33:49.820Z,2.20
2023-08-14T19:36:16.575Z,2.30
2023-08-14T19:38:43.283Z,2.17
2023-08-14T19:41:10.046Z,2.35
2023-08-14T19:43:36.772Z,2.17
2023-08-14T19:46:03.597Z,2.40
2023-08-14T19:48:30.334Z,2.42
2023-08-14T19:50:57.655Z,2.47
2023-08-14T19:53:24.409Z,2.72
2023-08-14T19:55:51.114Z,2.35
2023-08-14T19:58:17.840Z,2.22
2023-08-14T20:00:44.599Z,2.35
2023-08-14T20:03:11.447Z,2.13
2023-08-14T20:05:40.227Z,2.47
2023-08-14T20:08:07.909Z,2.42
2023-08-14T20:10:34.689Z,2.80
2023-08-14T20:13:01.458Z,2.80
2023-08-14T20:15:28.131Z,2.50
2023-08-14T20:17:54.882Z,2.70
2023-08-14T20:20:21.706Z,3.10
2023-08-14T20:22:48.567Z,2.85
2023-08-14T20:25:15.430Z,2.33
2023-08-14T20:27:42.204Z,3.08
2023-08-14T20:30:09.585Z,2.78
2023-08-14T20:32:36.632Z,3.58
2023-08-14T20:35:08.487Z,2.80
2023-08-14T20:37:35.293Z,3.30
2023-08-14T20:40:02.509Z,2.78
2023-08-14T20:42:29.219Z,2.58
2023-08-14T20:44:56.073Z,3.10
2023-08-14T20:47:22.833Z,2.85
2023-08-14T20:49:49.674Z,3.25
2023-08-14T20:52:16.522Z,2.58
2023-08-14T20:54:43.322Z,2.75
2023-08-14T20:57:10.001Z,2.50
2023-08-14T20:59:38.793Z,2.63
2023-08-14T21:02:05.501Z,2.65
2023-08-14T21:04:32.206Z,2.53
2023-08-14T21:06:58.959Z,3.08
2023-08-14T21:09:25.666Z,2.42
2023-08-14T21:11:53.544Z,3.10
2023-08-14T21:14:20.564Z,2.75
2023-08-14T21:16:47.358Z,3.20
2023-08-14T21:19:14.106Z,2.90
2023-08-14T21:21:40.892Z,2.85
2023-08-14T21:24:07.736Z,3.88
2023-08-14T21:26:36.974Z,2.95
2023-08-14T21:29:04.242Z,2.97
2023-08-14T21:31:30.941Z,2.88
2023-08-14T21:33:57.637Z,2.60
2023-08-14T21:36:24.294Z,3.20
2023-08-14T21:38:51.011Z,3.30
2023-08-14T21:41:17.767Z,3.22
2023-08-14T21:43:44.476Z,2.97
2023-08-14T21:46:11.213Z,3.28
2023-08-14T21:48:37.950Z,3.03
2023-08-14T21:51:04.639Z,2.90
2023-08-14T21:53:31.363Z,2.90
2023-08-14T21:55:58.063Z,2.70
2023-08-14T21:58:24.786Z,2.60
2023-08-14T22:00:51.558Z,2.60
2023-08-14T22:03:18.323Z,3.05
2023-08-14T22:05:45.010Z,2.85
2023-08-14T22:08:11.669Z,2.85
2023-08-14T22:10:38.394Z,2.60
2023-08-14T22:13:05.233Z,2.60
2023-08-14T22:15:44.835Z,3.03
2023-08-14T22:18:14.913Z,2.83
2023-08-14T22:20:42.648Z,2.67
2023-08-14T22:23:11.447Z,2.72
2023-08-14T22:25:38.465Z,2.85
2023-08-14T22:28:06.817Z,2.70
2023-08-14T22:30:34.768Z,2.75
2023-08-14T22:33:01.616Z,2.65
2023-08-14T22:35:28.385Z,2.60
2023-08-14T22:37:55.103Z,2.83
2023-08-14T22:40:21.803Z,3.03
2023-08-14T22:42:48.570Z,2.97
2023-08-14T22:45:15.571Z,2.95
2023-08-14T22:47:42.431Z,2.42
2023-08-14T22:50:10.453Z,2.90
2023-08-14T22:52:37.190Z,2.78
2023-08-14T22:55:04.623Z,3.13
2023-08-14T22:57:31.332Z,4.20
2023-08-14T22:59:57.997Z,3.13
2023-08-14T23:02:24.814Z,2.53
2023-08-14T23:04:51.523Z,3.08
2023-08-14T23:07:20.324Z,3.22
2023-08-14T23:09:47.289Z,3.13
2023-08-14T23:12:14.016Z,2.22
2023-08-14T23:14:40.809Z,2.75
2023-08-14T23:17:07.584Z,3.13
2023-08-14T23:19:34.313Z,2.00
2023-08-14T23:22:01.018Z,3.08
2023-08-14T23:24:28.188Z,3.20
2023-08-14T23:26:55.242Z,2.70
2023-08-14T23:29:21.981Z,3.03
2023-08-14T23:31:48.760Z,2.40
2023-08-14T23:34:15.501Z,3.22
2023-08-14T23:36:42.250Z,2.22
2023-08-14T23:39:10.131Z,2.60
2023-08-14T23:41:36.887Z,3.35
2023-08-14T23:44:03.824Z,2.83
2023-08-14T23:46:30.586Z,2.80
2023-08-14T23:48:57.321Z,2.45
2023-08-14T23:51:24.272Z,2.97
2023-08-14T23:53:50.956Z,3.13
2023-08-14T23:56:17.632Z,2.95
2023-08-14T23:58:44.290Z,2.85
